Time;durP1;ratioP1;P1;durP2;ratioP2;P2;SDS_P1;SDS_P2;PMS_P1;PMS_P2;Temp;Humidity;BMP_temperature;BMP_pressure;BME280_temperature;BME280_humidity;BME280_pressure;Samples;Min_cycle;Max_cycle;Signal;HPM_P1;HPM_P2
2023/03/10 00:01:25;;;;;;;;;;;;;;;;;;5009204;28;20292;-79
2023/03/10 00:03:51;;;;;;;;;;;;;;;;;;5010488;28;20270;-82
2023/03/10 00:06:17;;;;;;;;;;;;;;;;;;5012828;28;19918;-78
2023/03/10 00:08:43;;;;;;;;;;;;;;;;;;5012742;28;20381;-81
2023/03/10 00:11:08;;;;;;;;;;;;;;;;;;5012795;28;19932;-81
2023/03/10 00:13:33;;;;;;;;;;;;;;;;;;5012493;28;19921;-81
2023/03/10 00:15:59;;;;;;;;;;;;;;;;;;5012462;28;19909;-81
2023/03/10 00:18:24;;;;;;;;;;;;;;;;;;5013295;28;19917;-81
2023/03/10 00:20:50;;;;;;;;;;;;;;;;;;5011034;28;19922;-78
2023/03/10 00:23:15;;;;;;;;;;;;;;;;;;5010001;28;19916;-79
2023/03/10 00:25:40;;;;;;;;;;;;;;;;;;5010204;28;20008;-80
2023/03/10 00:28:05;;;;;;;;;;;;;;;;;;5008883;28;20004;-79
2023/03/10 00:30:34;;;;;;;;;;;;;;;;;;5009043;28;19909;-81
2023/03/10 00:32:59;;;;;;;;;;;;;;;;;;5007585;28;19936;-79
2023/03/10 00:35:24;;;;;;;;;;;;;;;;;;5009430;28;19910;-82
2023/03/10 00:37:49;;;;;;;;;;;;;;;;;;5010965;28;19909;-81
2023/03/10 00:40:15;;;;;;;;;;;;;;;;;;5007450;28;19914;-80
2023/03/10 00:42:40;;;;;;;;;;;;;;;;;;5008980;28;19910;-81
2023/03/10 00:45:06;;;;;;;;;;;;;;;;;;5008241;28;19921;-81
2023/03/10 00:47:31;;;;;;;;;;;;;;;;;;5006668;28;19916;-79
2023/03/10 00:49:56;;;;;;;;;;;;;;;;;;5009330;28;19913;-79
2023/03/10 00:52:21;;;;;;;;;;;;;;;;;;5009077;28;19909;-81
2023/03/10 00:54:46;;;;;;;;;;;;;;;;;;5009983;28;19916;-81
2023/03/10 00:57:11;;;;;;;;;;;;;;;;;;5009129;28;19941;-81
2023/03/10 00:59:37;;;;;;;;;;;;;;;;;;5009057;28;19916;-79
2023/03/10 01:02:02;;;;;;;;;;;;;;;;;;5008778;28;20340;-83
2023/03/10 01:04:27;;;;;;;;;;;;;;;;;;5009957;28;19910;-82
2023/03/10 01:06:52;;;;;;;;;;;;;;;;;;5011213;28;19909;-79
2023/03/10 01:09:17;;;;;;;;;;;;;;;;;;5009353;28;19910;-82
2023/03/10 01:11:43;;;;;;;;;;;;;;;;;;5007910;28;20004;-80
2023/03/10 01:14:15;;;;;;;;;;;;;;;;;;5007238;28;19910;-79
2023/03/10 01:16:40;;;;;;;;;;;;;;;;;;5006088;28;19909;-81
2023/03/10 01:19:06;;;;;;;;;;;;;;;;;;5005132;28;19933;-80
2023/03/10 01:21:33;;;;;;;;;;;;;;;;;;5004389;28;20365;-80
2023/03/10 01:23:58;;;;;;;;;;;;;;;;;;5002582;28;20000;-82
2023/03/10 01:26:24;;;;;;;;;;;;;;;;;;5003236;28;19972;-81
2023/03/10 01:28:49;;;;;;;;;;;;;;;;;;5000516;28;20004;-80
2023/03/10 01:31:15;;;;;;;;;;;;;;;;;;5000849;28;19917;-80
2023/03/10 01:33:41;;;;;;;;;;;;;;;;;;4999885;28;19909;-81
2023/03/10 01:36:10;;;;;;;;;;;;;;;;;;5001652;28;19936;-81
2023/03/10 01:38:36;;;;;;;;;;;;;;;;;;5001176;28;19945;-81
2023/03/10 01:41:01;;;;;;;;;;;;;;;;;;5001098;28;19921;-79
2023/03/10 01:43:27;;;;;;;;;;;;;;;;;;5002835;28;19910;-81
2023/03/10 01:45:53;;;;;;;;;;;;;;;;;;5004688;28;19910;-81
2023/03/10 01:48:18;;;;;;;;;;;;;;;;;;5004089;28;19917;-81
2023/03/10 01:50:45;;;;;;;;;;;;;;;;;;5004110;28;19916;-79
2023/03/10 01:53:11;;;;;;;;;;;;;;;;;;5005505;28;19910;-79
2023/03/10 01:55:40;;;;;;;;;;;;;;;;;;5006273;28;19928;-81
2023/03/10 01:58:05;;;;;;;;;;;;;;;;;;5007154;28;19910;-81
2023/03/10 02:00:30;;;;;;;;;;;;;;;;;;5006696;28;19930;-80
2023/03/10 02:03:02;;;;;;;;;;;;;;;;;;5006448;28;19960;-81
2023/03/10 02:05:28;;;;;;;;;;;;;;;;;;5006558;28;20381;-80
2023/03/10 02:07:54;;;;;;;;;;;;;;;;;;5007917;28;19910;-82
2023/03/10 02:10:19;;;;;;;;;;;;;;;;;;5009012;28;19988;-80
2023/03/10 02:12:45;;;;;;;;;;;;;;;;;;5009156;28;19991;-79
2023/03/10 02:15:10;;;;;;;;;;;;;;;;;;5008783;28;19909;-80
2023/03/10 02:17:35;;;;;;;;;;;;;;;;;;5008828;28;19913;-80
2023/03/10 02:20:20;;;;;;;;;;;;;;;;;;5008277;28;20332;-81
2023/03/10 02:22:45;;;;;;;;;;;;;;;;;;5007558;28;19973;-81
2023/03/10 02:25:22;;;;;;;;;;;;;;;;;;5006783;28;20362;-81
2023/03/10 02:27:47;;;;;;;;;;;;;;;;;;5006017;28;19909;-81
2023/03/10 02:30:13;;;;;;;;;;;;;;;;;;5006304;28;20320;-81
2023/03/10 02:32:40;;;;;;;;;;;;;;;;;;5007495;28;19910;-81
2023/03/10 02:35:06;;;;;;;;;;;;;;;;;;5010194;28;19906;-81
2023/03/10 02:37:32;;;;;;;;;;;;;;;;;;5018378;28;19908;-81
2023/03/10 02:39:58;;;;;;;;;;;;;;;;;;5017764;28;19917;-81
2023/03/10 02:42:25;;;;;;;;;;;;;;;;;;5016274;28;19980;-79
2023/03/10 02:44:50;;;;;;;;;;;;;;;;;;5013772;28;19910;-81
2023/03/10 02:47:16;;;;;;;;;;;;;;;;;;5005709;28;19913;-80
2023/03/10 02:49:41;;;;;;;;;;;;;;;;;;5003754;28;19941;-79
2023/03/10 02:52:25;;;;;;;;;;;;;;;;;;5005848;28;19909;-80
2023/03/10 02:54:50;;;;;;;;;;;;;;;;;;5007623;28;19910;-80
2023/03/10 02:57:16;;;;;;;;;;;;;;;;;;5008143;28;19913;-81
2023/03/10 02:59:41;;;;;;;;;;;;;;;;;;5008403;28;19977;-81
2023/03/10 03:02:06;;;;;;;;;;;;;;;;;;5008241;28;19914;-80
2023/03/10 03:04:32;;;;;;;;;;;;;;;;;;5009445;28;19913;-79
2023/03/10 03:06:57;;;;;;;;;;;;;;;;;;5009726;28;20312;-81
2023/03/10 03:09:23;;;;;;;;;;;;;;;;;;5010527;28;19910;-81
2023/03/10 03:11:48;;;;;;;;;;;;;;;;;;5010827;28;19917;-81
2023/03/10 03:14:13;;;;;;;;;;;;;;;;;;5010630;28;19980;-80
2023/03/10 03:16:38;;;;;;;;;;;;;;;;;;5011191;28;19909;-81
2023/03/10 03:19:03;;;;;;;;;;;;;;;;;;5011361;28;19936;-81
2023/03/10 03:21:29;;;;;;;;;;;;;;;;;;5010435;28;19922;-81
2023/03/10 03:23:54;;;;;;;;;;;;;;;;;;5010071;28;20017;-80
2023/03/10 03:26:21;;;;;;;;;;;;;;;;;;5010014;28;20351;-81
2023/03/10 03:28:46;;;;;;;;;;;;;;;;;;5009052;28;19913;-80
2023/03/10 03:31:12;;;;;;;;;;;;;;;;;;5008407;28;19955;-81
2023/03/10 03:33:37;;;;;;;;;;;;;;;;;;5007444;28;20500;-81
2023/03/10 03:36:03;;;;;;;;;;;;;;;;;;5009251;28;19910;-81
2023/03/10 03:38:28;;;;;;;;;;;;;;;;;;5007427;28;19980;-80
2023/03/10 03:40:53;;;;;;;;;;;;;;;;;;5009669;28;19914;-80
2023/03/10 03:43:18;;;;;;;;;;;;;;;;;;5009301;28;19933;-81
2023/03/10 03:45:44;;;;;;;;;;;;;;;;;;5008810;28;19909;-81
2023/03/10 03:48:11;;;;;;;;;;;;;;;;;;5008298;28;19909;-81
2023/03/10 03:50:36;;;;;;;;;;;;;;;;;;5008948;28;19972;-81
2023/03/10 03:53:02;;;;;;;;;;;;;;;;;;5011467;28;19978;-81
2023/03/10 03:55:28;;;;;;;;;;;;;;;;;;5009895;28;20444;-82
2023/03/10 03:57:53;;;;;;;;;;;;;;;;;;5012559;28;19925;-81
2023/03/10 04:00:19;;;;;;;;;;;;;;;;;;5013150;28;19941;-81
2023/03/10 04:02:44;;;;;;;;;;;;;;;;;;5012593;28;19917;-80
2023/03/10 04:05:10;;;;;;;;;;;;;;;;;;5012161;28;19910;-81
2023/03/10 04:07:37;;;;;;;;;;;;;;;;;;5012626;28;19916;-81
2023/03/10 04:10:02;;;;;;;;;;;;;;;;;;5011440;28;19909;-78
2023/03/10 04:12:28;;;;;;;;;;;;;;;;;;5013387;28;19916;-81
2023/03/10 04:14:53;;;;;;;;;;;;;;;;;;5013457;28;19949;-80
2023/03/10 04:17:18;;;;;;;;;;;;;;;;;;5013444;28;19910;-82
2023/03/10 04:19:43;;;;;;;;;;;;;;;;;;5012798;28;19932;-79
2023/03/10 04:22:09;;;;;;;;;;;;;;;;;;5012681;28;19928;-82
2023/03/10 04:24:36;;;;;;;;;;;;;;;;;;5013424;28;19910;-82
2023/03/10 04:27:01;;;;;;;;;;;;;;;;;;5013310;28;19909;-81
2023/03/10 04:29:26;;;;;;;;;;;;;;;;;;5012734;28;19935;-81
2023/03/10 04:31:52;;;;;;;;;;;;;;;;;;5009416;28;19925;-81
2023/03/10 04:34:17;;;;;;;;;;;;;;;;;;5009339;28;19969;-81
2023/03/10 04:36:42;;;;;;;;;;;;;;;;;;5008019;28;20011;-81
2023/03/10 04:39:08;;;;;;;;;;;;;;;;;;5006846;28;19910;-79
2023/03/10 04:41:34;;;;;;;;;;;;;;;;;;5010420;28;19917;-79
2023/03/10 04:43:59;;;;;;;;;;;;;;;;;;5011067;28;20420;-80
2023/03/10 04:46:24;;;;;;;;;;;;;;;;;;5010486;28;19960;-80
2023/03/10 04:48:50;;;;;;;;;;;;;;;;;;5009554;28;20266;-81
2023/03/10 04:51:15;;;;;;;;;;;;;;;;;;5009501;28;19910;-81
2023/03/10 04:53:40;;;;;;;;;;;;;;;;;;5011760;28;20360;-81
2023/03/10 04:56:06;;;;;;;;;;;;;;;;;;5010744;28;19913;-80
2023/03/10 04:58:31;;;;;;;;;;;;;;;;;;5010342;28;19933;-80
2023/03/10 05:00:57;;;;;;;;;;;;;;;;;;5012010;28;19965;-82
2023/03/10 05:03:22;;;;;;;;;;;;;;;;;;5011830;28;19965;-83
2023/03/10 05:05:47;;;;;;;;;;;;;;;;;;5012983;28;19910;-83
2023/03/10 05:08:12;;;;;;;;;;;;;;;;;;5011190;28;19909;-81
2023/03/10 05:10:41;;;;;;;;;;;;;;;;;;5012236;28;20008;-82
2023/03/10 05:13:11;;;;;;;;;;;;;;;;;;5013550;28;20377;-82
2023/03/10 05:15:36;;;;;;;;;;;;;;;;;;5011910;28;19917;-81
2023/03/10 05:18:01;;;;;;;;;;;;;;;;;;5013313;28;20328;-82
2023/03/10 05:20:26;;;;;;;;;;;;;;;;;;5012280;28;19977;-82
2023/03/10 05:22:52;;;;;;;;;;;;;;;;;;5012898;28;19932;-82
2023/03/10 05:25:17;;;;;;;;;;;;;;;;;;5012090;28;19972;-81
2023/03/10 05:27:42;;;;;;;;;;;;;;;;;;5008993;28;19932;-82
2023/03/10 05:30:14;;;;;;;;;;;;;;;;;;5006744;28;19964;-83
2023/03/10 05:32:45;;;;;;;;;;;;;;;;;;5008695;28;19909;-83
2023/03/10 05:35:11;;;;;;;;;;;;;;;;;;5010418;28;19916;-82
2023/03/10 05:37:38;;;;;;;;;;;;;;;;;;5019102;28;19917;-80
2023/03/10 05:40:04;;;;;;;;;;;;;;;;;;5019962;28;19918;-81
2023/03/10 05:42:29;;;;;;;;;;;;;;;;;;5020312;28;19906;-82
2023/03/10 05:44:55;;;;;;;;;;;;;;;;;;5019403;28;19906;-80
2023/03/10 05:47:20;;;;;;;;;;;;;;;;;;5006542;28;20288;-82
2023/03/10 05:49:45;;;;;;;;;;;;;;;;;;5005746;28;19909;-80
2023/03/10 05:52:10;;;;;;;;;;;;;;;;;;5007932;28;19909;-79
2023/03/10 05:54:35;;;;;;;;;;;;;;;;;;5008944;28;19914;-81
2023/03/10 05:57:00;;;;;;;;;;;;;;;;;;5008805;28;19932;-81
2023/03/10 05:59:26;;;;;;;;;;;;;;;;;;5008738;28;19913;-82
2023/03/10 06:01:51;;;;;;;;;;;;;;;;;;5010452;28;19962;-81
2023/03/10 06:04:16;;;;;;;;;;;;;;;;;;5011422;28;19964;-82
2023/03/10 06:06:41;;;;;;;;;;;;;;;;;;5011200;28;19910;-83
2023/03/10 06:09:06;;;;;;;;;;;;;;;;;;5010149;28;19914;-82
2023/03/10 06:11:32;;;;;;;;;;;;;;;;;;5011081;28;19920;-81
2023/03/10 06:13:57;;;;;;;;;;;;;;;;;;5011715;28;19960;-83
2023/03/10 06:16:23;;;;;;;;;;;;;;;;;;5010695;28;19909;-81
2023/03/10 06:18:51;;;;;;;;;;;;;;;;;;5011251;28;19909;-79
2023/03/10 06:21:16;;;;;;;;;;;;;;;;;;5009796;28;19917;-82
2023/03/10 06:23:41;;;;;;;;;;;;;;;;;;5011023;28;20270;-81
2023/03/10 06:26:10;;;;;;;;;;;;;;;;;;5011252;28;19910;-81
2023/03/10 06:28:36;;;;;;;;;;;;;;;;;;5011428;28;19910;-82
2023/03/10 06:31:02;;;;;;;;;;;;;;;;;;5011046;28;19917;-83
2023/03/10 06:33:28;;;;;;;;;;;;;;;;;;5011033;28;19925;-82
2023/03/10 06:35:53;;;;;;;;;;;;;;;;;;5010909;28;19983;-81
2023/03/10 06:38:19;;;;;;;;;;;;;;;;;;5011649;28;19999;-80
2023/03/10 06:40:44;;;;;;;;;;;;;;;;;;5010853;28;19967;-80
2023/03/10 06:43:09;;;;;;;;;;;;;;;;;;5011656;28;19945;-81
2023/03/10 06:45:34;;;;;;;;;;;;;;;;;;5011382;28;19916;-81
2023/03/10 06:47:59;;;;;;;;;;;;;;;;;;5011283;28;19941;-82
2023/03/10 06:50:25;;;;;;;;;;;;;;;;;;5011866;28;19910;-82
2023/03/10 06:52:50;;;;;;;;;;;;;;;;;;5010373;28;19916;-81
2023/03/10 06:55:15;;;;;;;;;;;;;;;;;;5010491;28;19910;-82
2023/03/10 06:57:41;;;;;;;;;;;;;;;;;;5011579;28;19964;-82
2023/03/10 07:00:10;;;;;;;;;;;;;;;;;;5010872;28;19913;-82
2023/03/10 07:02:35;;;;;;;;;;;;;;;;;;5010933;28;19929;-82
2023/03/10 07:05:00;;;;;;;;;;;;;;;;;;5011148;28;19918;-81
2023/03/10 07:07:25;;;;;;;;;;;;;;;;;;5010725;28;19953;-83
2023/03/10 07:09:51;;;;;;;;;;;;;;;;;;5010317;28;19909;-83
2023/03/10 07:12:16;;;;;;;;;;;;;;;;;;5011493;28;19913;-82
2023/03/10 07:14:41;;;;;;;;;;;;;;;;;;5010227;28;19910;-81
2023/03/10 07:17:06;;;;;;;;;;;;;;;;;;5010391;28;19917;-82
2023/03/10 07:19:31;;;;;;;;;;;;;;;;;;5012029;28;19917;-82
2023/03/10 07:21:57;;;;;;;;;;;;;;;;;;5010829;28;20000;-82
2023/03/10 07:24:22;;;;;;;;;;;;;;;;;;5010946;28;19914;-81
2023/03/10 07:26:47;;;;;;;;;;;;;;;;;;5012015;28;20273;-81
2023/03/10 07:29:12;;;;;;;;;;;;;;;;;;5014856;28;19910;-81
2023/03/10 07:31:37;;;;;;;;;;;;;;;;;;5013077;28;19981;-82
2023/03/10 07:34:03;;;;;;;;;;;;;;;;;;5009038;28;19910;-81
2023/03/10 07:36:28;;;;;;;;;;;;;;;;;;5009399;28;19909;-82
2023/03/10 07:38:53;;;;;;;;;;;;;;;;;;5011038;28;19916;-81
2023/03/10 07:41:20;;;;;;;;;;;;;;;;;;5012365;28;19918;-81
2023/03/10 07:43:46;;;;;;;;;;;;;;;;;;5013796;28;19914;-81
2023/03/10 07:46:12;;;;;;;;;;;;;;;;;;5010347;28;19916;-81
2023/03/10 07:48:37;;;;;;;;;;;;;;;;;;5010394;28;19910;-82
2023/03/10 07:51:03;;;;;;;;;;;;;;;;;;5009221;28;19917;-79
2023/03/10 07:53:28;;;;;;;;;;;;;;;;;;5006801;28;19959;-81
2023/03/10 07:55:54;;;;;;;;;;;;;;;;;;5009311;28;19917;-78
2023/03/10 07:58:19;;;;;;;;;;;;;;;;;;5009090;28;19909;-82
2023/03/10 08:00:44;;;;;;;;;;;;;;;;;;5005191;28;19910;-82
2023/03/10 08:03:09;;;;;;;;;;;;;;;;;;5007268;28;20013;-82
2023/03/10 08:05:38;;;;;;;;;;;;;;;;;;5004750;28;19910;-81
2023/03/10 08:08:03;;;;;;;;;;;;;;;;;;5004495;28;19910;-82
2023/03/10 08:10:28;;;;;;;;;;;;;;;;;;5005060;28;19949;-80
2023/03/10 08:12:54;;;;;;;;;;;;;;;;;;5004354;28;19957;-80
2023/03/10 08:15:19;;;;;;;;;;;;;;;;;;5006415;28;19910;-80
2023/03/10 08:17:44;;;;;;;;;;;;;;;;;;5004186;28;20392;-81
2023/03/10 08:20:11;;;;;;;;;;;;;;;;;;5004413;28;19918;-80
2023/03/10 08:22:37;;;;;;;;;;;;;;;;;;5005678;28;19925;-81
2023/03/10 08:25:02;;;;;;;;;;;;;;;;;;5005060;28;19910;-81
2023/03/10 08:27:27;;;;;;;;;;;;;;;;;;5003419;28;19964;-81
2023/03/10 08:29:52;;;;;;;;;;;;;;;;;;5003508;28;19941;-81
2023/03/10 08:32:18;;;;;;;;;;;;;;;;;;5002914;28;19910;-81
2023/03/10 08:34:43;;;;;;;;;;;;;;;;;;5001408;28;20445;-80
2023/03/10 08:37:09;;;;;;;;;;;;;;;;;;4998640;28;19909;-80
2023/03/10 08:39:34;;;;;;;;;;;;;;;;;;5001879;28;19909;-80
2023/03/10 08:42:00;;;;;;;;;;;;;;;;;;5001451;28;19917;-81
2023/03/10 08:44:25;;;;;;;;;;;;;;;;;;5004884;28;19937;-81
2023/03/10 08:46:50;;;;;;;;;;;;;;;;;;5021290;28;19909;-82
2023/03/10 08:49:16;;;;;;;;;;;;;;;;;;5021568;28;19914;-81
2023/03/10 08:51:42;;;;;;;;;;;;;;;;;;5021498;28;19905;-83
2023/03/10 08:54:09;;;;;;;;;;;;;;;;;;5021272;28;19980;-79
2023/03/10 08:56:34;;;;;;;;;;;;;;;;;;5021161;28;19906;-80
2023/03/10 08:58:59;;;;;;;;;;;;;;;;;;5004145;28;19920;-80
2023/03/10 09:01:26;;;;;;;;;;;;;;;;;;5000591;28;19916;-80
2023/03/10 09:03:51;;;;;;;;;;;;;;;;;;4999214;28;19913;-81
2023/03/10 09:06:16;;;;;;;;;;;;;;;;;;4999847;28;19969;-79
2023/03/10 09:08:42;;;;;;;;;;;;;;;;;;5000735;28;19909;-80
2023/03/10 09:11:08;;;;;;;;;;;;;;;;;;4999365;28;19917;-81
2023/03/10 09:13:33;;;;;;;;;;;;;;;;;;4999805;28;19921;-80
2023/03/10 09:15:58;;;;;;;;;;;;;;;;;;5000922;28;20365;-81
2023/03/10 09:18:23;;;;;;;;;;;;;;;;;;5001175;28;19917;-80
2023/03/10 09:20:48;;;;;;;;;;;;;;;;;;5000153;28;19972;-81
2023/03/10 09:23:14;;;;;;;;;;;;;;;;;;5005927;28;19921;-79
2023/03/10 09:25:40;;;;;;;;;;;;;;;;;;5004790;28;19917;-80
2023/03/10 09:28:06;;;;;;;;;;;;;;;;;;5005692;28;19910;-79
2023/03/10 09:30:32;;;;;;;;;;;;;;;;;;5001914;28;19917;-80
2023/03/10 09:32:58;;;;;;;;;;;;;;;;;;5003207;28;19920;-80
2023/03/10 09:35:23;;;;;;;;;;;;;;;;;;5004077;28;19910;-80
2023/03/10 09:37:48;;;;;;;;;;;;;;;;;;5003840;28;19914;-80
2023/03/10 09:40:16;;;;;;;;;;;;;;;;;;5004158;28;20365;-80
2023/03/10 09:43:07;;;;;;;;;;;;;;;;;;5004352;28;20000;-81
2023/03/10 09:45:53;;;;;;;;;;;;;;;;;;5002370;28;19967;-81
2023/03/10 09:48:38;;;;;;;;;;;;;;;;;;5004055;28;19910;-80
2023/03/10 09:51:09;;;;;;;;;;;;;;;;;;5005204;28;20361;-81
2023/03/10 09:53:53;;;;;;;;;;;;;;;;;;5006977;28;19914;-81
2023/03/10 09:56:21;;;;;;;;;;;;;;;;;;5005231;28;20391;-80
2023/03/10 09:59:06;;;;;;;;;;;;;;;;;;5004658;28;19910;-81
2023/03/10 10:01:32;;;;;;;;;;;;;;;;;;5004916;28;19909;-80
2023/03/10 10:04:08;;;;;;;;;;;;;;;;;;5004494;28;19955;-80
2023/03/10 10:06:35;;;;;;;;;;;;;;;;;;5003180;28;20396;-80
2023/03/10 10:09:03;;;;;;;;;;;;;;;;;;5003971;28;19913;-80
2023/03/10 10:11:28;;;;;;;;;;;;;;;;;;5004438;28;19913;-81
2023/03/10 10:14:08;;;;;;;;;;;;;;;;;;5001022;28;19921;-80
2023/03/10 10:16:38;;;;;;;;;;;;;;;;;;5003570;28;19913;-78
2023/03/10 10:19:06;;;;;;;;;;;;;;;;;;5002461;28;20288;-78
2023/03/10 10:21:34;;;;;;;;;;;;;;;;;;4998864;28;19920;-78
2023/03/10 10:23:59;;;;;;;;;;;;;;;;;;4997650;28;19973;-76
2023/03/10 10:26:25;;;;;;;;;;;;;;;;;;4999096;28;19949;-78
2023/03/10 10:28:56;;;;;;;;;;;;;;;;;;4997275;28;19910;-77
2023/03/10 10:31:23;;;;;;;;;;;;;;;;;;4995733;28;19910;-77
2023/03/10 10:33:57;;;;;;;;;;;;;;;;;;4995546;28;19921;-77
2023/03/10 10:36:24;;;;;;;;;;;;;;;;;;4996344;28;19979;-78
2023/03/10 10:38:51;;;;;;;;;;;;;;;;;;4997475;28;20388;-82
2023/03/10 10:41:20;;;;;;;;;;;;;;;;;;4994419;28;19917;-82
2023/03/10 10:43:46;;;;;;;;;;;;;;;;;;4995345;28;19914;-83
2023/03/10 10:46:13;;;;;;;;;;;;;;;;;;4996774;28;19916;-82
2023/03/10 10:48:40;;;;;;;;;;;;;;;;;;4995976;28;20266;-81
2023/03/10 10:51:17;;;;;;;;;;;;;;;;;;4997069;28;19910;-82
2023/03/10 10:53:51;;;;;;;;;;;;;;;;;;4997284;28;20002;-84
2023/03/10 10:56:17;;;;;;;;;;;;;;;;;;4996234;28;19959;-81
2023/03/10 10:58:44;;;;;;;;;;;;;;;;;;4996752;28;20347;-82
2023/03/10 11:01:11;;;;;;;;;;;;;;;;;;4995616;28;20361;-80
2023/03/10 11:03:37;;;;;;;;;;;;;;;;;;4997060;28;19937;-81
2023/03/10 11:06:12;;;;;;;;;;;;;;;;;;4999039;28;19917;-81
2023/03/10 11:08:39;;;;;;;;;;;;;;;;;;5002431;28;19914;-81
2023/03/10 11:11:18;;;;;;;;;;;;;;;;;;5003637;28;19910;-82
2023/03/10 11:13:56;;;;;;;;;;;;;;;;;;5002098;28;20273;-82
2023/03/10 11:16:27;;;;;;;;;;;;;;;;;;5002680;28;19909;-81
2023/03/10 11:19:00;;;;;;;;;;;;;;;;;;5002652;28;19916;-81
2023/03/10 11:21:27;;;;;;;;;;;;;;;;;;5003805;28;19914;-83
2023/03/10 11:24:02;;;;;;;;;;;;;;;;;;5004956;28;19914;-82
2023/03/10 11:26:36;;;;;;;;;;;;;;;;;;5000924;28;20045;-82
2023/03/10 11:29:18;;;;;;;;;;;;;;;;;;5001417;28;19916;-81
2023/03/10 11:31:51;;;;;;;;;;;;;;;;;;5002104;28;19910;-81
2023/03/10 11:34:16;;;;;;;;;;;;;;;;;;5000768;28;20004;-81
2023/03/10 11:37:03;;;;;;;;;;;;;;;;;;5000881;28;19956;-82
2023/03/10 11:39:28;;;;;;;;;;;;;;;;;;4999283;28;19913;-80
2023/03/10 11:42:01;;;;;;;;;;;;;;;;;;5001078;28;19960;-81
2023/03/10 11:44:34;;;;;;;;;;;;;;;;;;5001840;28;20377;-81
2023/03/10 11:47:10;;;;;;;;;;;;;;;;;;5001450;28;20343;-81
2023/03/10 11:49:36;;;;;;;;;;;;;;;;;;4998411;28;19910;-82
2023/03/10 11:52:21;;;;;;;;;;;;;;;;;;4999814;28;19909;-80
2023/03/10 11:54:48;;;;;;;;;;;;;;;;;;5000501;28;19964;-81
2023/03/10 11:57:18;;;;;;;;;;;;;;;;;;5000974;28;19909;-81
2023/03/10 11:59:48;;;;;;;;;;;;;;;;;;5000131;28;20001;-81
2023/03/10 12:02:28;;;;;;;;;;;;;;;;;;4998873;28;19909;-82
2023/03/10 12:04:59;;;;;;;;;;;;;;;;;;5006565;28;19938;-81
2023/03/10 12:07:30;;;;;;;;;;;;;;;;;;5018467;28;19898;-82
2023/03/10 12:10:01;;;;;;;;;;;;;;;;;;5018834;28;19906;-83
2023/03/10 12:12:36;;;;;;;;;;;;;;;;;;5020842;28;19933;-82
2023/03/10 12:15:10;;;;;;;;;;;;;;;;;;5022051;28;19913;-82
2023/03/10 12:17:36;;;;;;;;;;;;;;;;;;5013988;28;19918;-82
2023/03/10 12:20:14;;;;;;;;;;;;;;;;;;5000662;28;19933;-81
2023/03/10 12:23:05;;;;;;;;;;;;;;;;;;5000959;28;19913;-80
2023/03/10 12:25:36;;;;;;;;;;;;;;;;;;4979146;28;19910;-82
2023/03/10 12:28:07;;;;;;;;;;;;;;;;;;5003841;28;19916;-81
2023/03/10 12:30:42;;;;;;;;;;;;;;;;;;5004049;28;20345;-80
2023/03/10 12:33:27;;;;;;;;;;;;;;;;;;5003656;28;19914;-81
2023/03/10 12:35:54;;;;;;;;;;;;;;;;;;5003383;28;20017;-81
2023/03/10 12:38:28;;;;;;;;;;;;;;;;;;5003994;28;19957;-82
2023/03/10 12:40:54;;;;;;;;;;;;;;;;;;5003160;28;19954;-82
2023/03/10 12:43:37;;;;;;;;;;;;;;;;;;5003561;28;20009;-80
2023/03/10 12:46:03;;;;;;;;;;;;;;;;;;5001995;28;19909;-81
2023/03/10 12:48:31;;;;;;;;;;;;;;;;;;5003930;28;19913;-81
2023/03/10 12:51:00;;;;;;;;;;;;;;;;;;5005764;28;19913;-83
2023/03/10 12:53:28;;;;;;;;;;;;;;;;;;5005219;28;19984;-81
2023/03/10 12:56:11;;;;;;;;;;;;;;;;;;5005660;28;19910;-82
2023/03/10 12:58:37;;;;;;;;;;;;;;;;;;5004865;28;20280;-82
2023/03/10 13:01:06;;;;;;;;;;;;;;;;;;5003985;28;19968;-82
2023/03/10 13:03:34;;;;;;;;;;;;;;;;;;5005182;28;20242;-82
2023/03/10 13:06:02;;;;;;;;;;;;;;;;;;5005846;28;19910;-82
2023/03/10 13:08:33;;;;;;;;;;;;;;;;;;5006608;28;19913;-82
2023/03/10 13:10:59;;;;;;;;;;;;;;;;;;5007438;28;19909;-81
2023/03/10 13:13:27;;;;;;;;;;;;;;;;;;5008189;28;19916;-82
2023/03/10 13:15:59;;;;;;;;;;;;;;;;;;5007646;28;19968;-82
2023/03/10 13:18:25;;;;;;;;;;;;;;;;;;5004700;28;19913;-82
2023/03/10 13:20:50;;;;;;;;;;;;;;;;;;5003761;28;19914;-82
2023/03/10 13:23:23;;;;;;;;;;;;;;;;;;5004860;28;19913;-79
2023/03/10 13:25:52;;;;;;;;;;;;;;;;;;5005106;28;20288;-83
2023/03/10 13:28:17;;;;;;;;;;;;;;;;;;5005047;28;19964;-82
2023/03/10 13:30:43;;;;;;;;;;;;;;;;;;5004775;28;19909;-83
2023/03/10 13:33:15;;;;;;;;;;;;;;;;;;5003852;28;19910;-81
2023/03/10 13:35:41;;;;;;;;;;;;;;;;;;5003601;28;19917;-82
2023/03/10 13:38:06;;;;;;;;;;;;;;;;;;5005036;28;19914;-81
2023/03/10 13:40:31;;;;;;;;;;;;;;;;;;5003814;28;19910;-82
2023/03/10 13:42:56;;;;;;;;;;;;;;;;;;5004152;28;19917;-81
2023/03/10 13:45:23;;;;;;;;;;;;;;;;;;5005235;28;19910;-82
2023/03/10 13:47:49;;;;;;;;;;;;;;;;;;5002378;28;19909;-82
2023/03/10 13:50:15;;;;;;;;;;;;;;;;;;5003509;28;19910;-82
2023/03/10 13:52:50;;;;;;;;;;;;;;;;;;5003031;28;19910;-82
2023/03/10 13:55:16;;;;;;;;;;;;;;;;;;5003498;28;19909;-80
2023/03/10 13:57:41;;;;;;;;;;;;;;;;;;5003662;28;20019;-81
2023/03/10 14:00:10;;;;;;;;;;;;;;;;;;5004109;28;19913;-81
2023/03/10 14:02:36;;;;;;;;;;;;;;;;;;5002271;28;19918;-83
2023/03/10 14:05:02;;;;;;;;;;;;;;;;;;5002976;28;20019;-82
2023/03/10 14:07:29;;;;;;;;;;;;;;;;;;5004675;28;19917;-82
2023/03/10 14:10:03;;;;;;;;;;;;;;;;;;5002809;28;19909;-82
2023/03/10 14:12:45;;;;;;;;;;;;;;;;;;5003753;28;19917;-82
2023/03/10 14:15:10;;;;;;;;;;;;;;;;;;5002301;28;19909;-82
2023/03/10 14:17:37;;;;;;;;;;;;;;;;;;5001570;28;19910;-82
2023/03/10 14:20:03;;;;;;;;;;;;;;;;;;5002025;28;19913;-80
2023/03/10 14:22:30;;;;;;;;;;;;;;;;;;5002858;28;19945;-82
2023/03/10 14:24:57;;;;;;;;;;;;;;;;;;5002851;28;19917;-83
2023/03/10 14:27:23;;;;;;;;;;;;;;;;;;5003422;28;19909;-84
2023/03/10 14:29:58;;;;;;;;;;;;;;;;;;5002624;28;19920;-83
2023/03/10 14:32:24;;;;;;;;;;;;;;;;;;5003009;28;19910;-82
2023/03/10 14:34:49;;;;;;;;;;;;;;;;;;5000492;28;19909;-81
2023/03/10 14:37:14;;;;;;;;;;;;;;;;;;5000714;28;19910;-82
2023/03/10 14:39:40;;;;;;;;;;;;;;;;;;4999793;28;19921;-82
2023/03/10 14:42:05;;;;;;;;;;;;;;;;;;5001680;28;19910;-81
2023/03/10 14:44:31;;;;;;;;;;;;;;;;;;5001092;28;19914;-81
2023/03/10 14:46:56;;;;;;;;;;;;;;;;;;5002051;28;19925;-81
2023/03/10 14:49:23;;;;;;;;;;;;;;;;;;5003065;28;19916;-82
2023/03/10 14:51:48;;;;;;;;;;;;;;;;;;5000294;28;19924;-82
2023/03/10 14:54:18;;;;;;;;;;;;;;;;;;5000727;28;19937;-81
2023/03/10 14:56:43;;;;;;;;;;;;;;;;;;5001667;28;20357;-83
2023/03/10 14:59:12;;;;;;;;;;;;;;;;;;5000922;28;19909;-81
2023/03/10 15:01:37;;;;;;;;;;;;;;;;;;5001073;28;20446;-81
2023/03/10 15:04:02;;;;;;;;;;;;;;;;;;5001827;28;19913;-80
2023/03/10 15:06:27;;;;;;;;;;;;;;;;;;4998734;28;20045;-81
2023/03/10 15:08:53;;;;;;;;;;;;;;;;;;4998836;28;20378;-81
2023/03/10 15:11:21;;;;;;;;;;;;;;;;;;4999967;28;19914;-80
2023/03/10 15:13:46;;;;;;;;;;;;;;;;;;5000684;28;19960;-81
2023/03/10 15:16:13;;;;;;;;;;;;;;;;;;5000030;28;19945;-80
2023/03/10 15:18:38;;;;;;;;;;;;;;;;;;4998233;28;20400;-81
2023/03/10 15:21:03;;;;;;;;;;;;;;;;;;4998111;28;20021;-80
2023/03/10 15:23:28;;;;;;;;;;;;;;;;;;4997685;28;19913;-81
2023/03/10 15:25:54;;;;;;;;;;;;;;;;;;4995430;28;19910;-82
2023/03/10 15:28:20;;;;;;;;;;;;;;;;;;4999685;28;20280;-81
2023/03/10 15:30:45;;;;;;;;;;;;;;;;;;5000571;28;19913;-81
2023/03/10 15:33:10;;;;;;;;;;;;;;;;;;4999836;28;19910;-82
2023/03/10 15:35:36;;;;;;;;;;;;;;;;;;5004991;28;19921;-81
2023/03/10 15:38:01;;;;;;;;;;;;;;;;;;5013743;28;19917;-81
2023/03/10 15:40:28;;;;;;;;;;;;;;;;;;5013246;28;19914;-80
2023/03/10 15:42:56;;;;;;;;;;;;;;;;;;5015399;28;19902;-81
2023/03/10 15:45:21;;;;;;;;;;;;;;;;;;5001399;28;19914;-82
2023/03/10 15:47:47;;;;;;;;;;;;;;;;;;4997320;28;20266;-82
2023/03/10 15:50:13;;;;;;;;;;;;;;;;;;4998728;28;19910;-82
2023/03/10 15:52:38;;;;;;;;;;;;;;;;;;5001294;28;20020;-82
2023/03/10 15:55:05;;;;;;;;;;;;;;;;;;5000274;28;19918;-80
2023/03/10 15:57:30;;;;;;;;;;;;;;;;;;5000780;28;19971;-80
2023/03/10 15:59:55;;;;;;;;;;;;;;;;;;5001199;28;20408;-82
2023/03/10 16:02:21;;;;;;;;;;;;;;;;;;5003088;28;19920;-81
2023/03/10 16:04:47;;;;;;;;;;;;;;;;;;5004262;28;20316;-81
2023/03/10 16:07:12;;;;;;;;;;;;;;;;;;5004477;28;20475;-82
2023/03/10 16:09:38;;;;;;;;;;;;;;;;;;5005184;28;19996;-83
2023/03/10 16:12:03;;;;;;;;;;;;;;;;;;5004545;28;19956;-82
2023/03/10 16:14:29;;;;;;;;;;;;;;;;;;5004325;28;19910;-82
2023/03/10 16:16:57;;;;;;;;;;;;;;;;;;5005104;28;19913;-82
2023/03/10 16:19:22;;;;;;;;;;;;;;;;;;5003828;28;19910;-82
2023/03/10 16:21:47;;;;;;;;;;;;;;;;;;5004221;28;19918;-83
2023/03/10 16:24:12;;;;;;;;;;;;;;;;;;5006016;28;19961;-81
2023/03/10 16:26:38;;;;;;;;;;;;;;;;;;5007383;28;20293;-82
2023/03/10 16:29:03;;;;;;;;;;;;;;;;;;5008640;28;20360;-83
2023/03/10 16:31:28;;;;;;;;;;;;;;;;;;5008888;28;19917;-83
2023/03/10 16:33:54;;;;;;;;;;;;;;;;;;5009218;28;19910;-82
2023/03/10 16:36:21;;;;;;;;;;;;;;;;;;5009323;28;19981;-83
2023/03/10 16:38:46;;;;;;;;;;;;;;;;;;5009562;28;19910;-83
2023/03/10 16:41:12;;;;;;;;;;;;;;;;;;5009610;28;19936;-81
2023/03/10 16:43:38;;;;;;;;;;;;;;;;;;5009670;28;19920;-83
2023/03/10 16:46:05;;;;;;;;;;;;;;;;;;5009469;28;19965;-81